sensor_id;sensor_type;location;lat;lon;timestamp;pressure;altitude;pressure_sealevel;temperature;humidity
47726;BME280;33483;48.294;16.388;2023-04-19T00:01:24;99893.88;;;9.63;100.00
47726;BME280;33483;48.294;16.388;2023-04-19T00:04:02;99886.09;;;9.61;100.00
47726;BME280;33483;48.294;16.388;2023-04-19T00:06:34;99882.63;;;9.55;100.00
47726;BME280;33483;48.294;16.388;2023-04-19T00:09:04;99883.44;;;9.45;100.00
47726;BME280;33483;48.294;16.388;2023-04-19T00:11:32;99883.47;;;9.34;100.00
47726;BME280;33483;48.294;16.388;2023-04-19T00:13:59;99878.75;;;9.23;100.00
47726;BME280;33483;48.294;16.388;2023-04-19T00:16:32;99881.03;;;9.13;100.00
47726;BME280;33483;48.294;16.388;2023-04-19T00:19:01;99875.31;;;9.06;100.00
47726;BME280;33483;48.294;16.388;2023-04-19T00:21:28;99870.81;;;8.97;100.00
47726;BME280;33483;48.294;16.388;2023-04-19T00:24:00;99877.13;;;8.92;100.00
47726;BME280;33483;48.294;16.388;2023-04-19T00:26:29;99868.84;;;8.87;100.00
47726;BME280;33483;48.294;16.388;2023-04-19T00:28:57;99864.84;;;8.82;100.00
47726;BME280;33483;48.294;16.388;2023-04-19T00:31:28;99860.34;;;8.79;100.00
47726;BME280;33483;48.294;16.388;2023-04-19T00:34:01;99854.09;;;8.73;100.00
47726;BME280;33483;48.294;16.388;2023-04-19T00:36:30;99852.06;;;8.74;100.00
47726;BME280;33483;48.294;16.388;2023-04-19T00:39:05;99851.81;;;8.72;100.00
47726;BME280;33483;48.294;16.388;2023-04-19T00:41:46;99848.06;;;8.69;100.00
47726;BME280;33483;48.294;16.388;2023-04-19T00:44:20;99852.59;;;8.61;100.00
47726;BME280;33483;48.294;16.388;2023-04-19T00:46:54;99843.56;;;8.61;100.00
47726;BME280;33483;48.294;16.388;2023-04-19T00:49:26;99838.28;;;8.63;100.00
47726;BME280;33483;48.294;16.388;2023-04-19T00:51:58;99836.50;;;8.65;100.00
47726;BME280;33483;48.294;16.388;2023-04-19T00:54:26;99834.00;;;8.67;100.00
47726;BME280;33483;48.294;16.388;2023-04-19T00:56:53;99825.19;;;8.74;100.00
47726;BME280;33483;48.294;16.388;2023-04-19T00:59:24;99823.69;;;8.73;100.00
47726;BME280;33483;48.294;16.388;2023-04-19T01:01:55;99824.16;;;8.77;100.00
47726;BME280;33483;48.294;16.388;2023-04-19T01:04:28;99824.41;;;8.79;100.00
47726;BME280;33483;48.294;16.388;2023-04-19T01:07:07;99817.84;;;8.82;100.00
47726;BME280;33483;48.294;16.388;2023-04-19T01:09:41;99822.38;;;8.85;100.00
47726;BME280;33483;48.294;16.388;2023-04-19T01:12:12;99822.88;;;8.84;100.00
47726;BME280;33483;48.294;16.388;2023-04-19T01:14:43;99817.84;;;8.82;100.00
47726;BME280;33483;48.294;16.388;2023-04-19T01:17:17;99817.13;;;8.82;100.00
47726;BME280;33483;48.294;16.388;2023-04-19T01:19:48;99813.59;;;8.81;100.00
47726;BME280;33483;48.294;16.388;2023-04-19T01:22:18;99811.81;;;8.84;100.00
47726;BME280;33483;48.294;16.388;2023-04-19T01:24:54;99816.84;;;8.85;100.00
47726;BME280;33483;48.294;16.388;2023-04-19T01:27:22;99808.75;;;8.93;100.00
47726;BME280;33483;48.294;16.388;2023-04-19T01:29:52;99805.19;;;9.03;100.00
47726;BME280;33483;48.294;16.388;2023-04-19T01:32:34;99808.69;;;9.09;100.00
47726;BME280;33483;48.294;16.388;2023-04-19T01:35:04;99800.84;;;9.13;100.00
47726;BME280;33483;48.294;16.388;2023-04-19T01:37:42;99797.09;;;9.17;100.00
47726;BME280;33483;48.294;16.388;2023-04-19T01:40:17;99801.59;;;9.20;100.00
47726;BME280;33483;48.294;16.388;2023-04-19T01:42:57;99807.63;;;9.24;100.00
47726;BME280;33483;48.294;16.388;2023-04-19T01:45:26;99805.31;;;9.28;100.00
47726;BME280;33483;48.294;16.388;2023-04-19T01:47:55;99799.00;;;9.33;100.00
47726;BME280;33483;48.294;16.388;2023-04-19T01:50:31;99793.94;;;9.37;100.00
47726;BME280;33483;48.294;16.388;2023-04-19T01:53:01;99789.94;;;9.38;100.00
47726;BME280;33483;48.294;16.388;2023-04-19T01:55:30;99791.16;;;9.37;100.00
47726;BME280;33483;48.294;16.388;2023-04-19T01:58:01;99789.66;;;9.41;100.00
47726;BME280;33483;48.294;16.388;2023-04-19T02:00:33;99788.13;;;9.40;100.00
47726;BME280;33483;48.294;16.388;2023-04-19T02:03:06;99787.34;;;9.45;100.00
47726;BME280;33483;48.294;16.388;2023-04-19T02:05:37;99803.16;;;9.50;100.00
47726;BME280;33483;48.294;16.388;2023-04-19T02:08:09;99789.78;;;9.54;100.00
47726;BME280;33483;48.294;16.388;2023-04-19T02:10:38;99794.81;;;9.56;100.00
47726;BME280;33483;48.294;16.388;2023-04-19T02:13:08;99784.75;;;9.58;100.00
47726;BME280;33483;48.294;16.388;2023-04-19T02:15:42;99790.03;;;9.56;100.00
47726;BME280;33483;48.294;16.388;2023-04-19T02:18:11;99786.75;;;9.58;100.00
47726;BME280;33483;48.294;16.388;2023-04-19T02:20:40;99785.25;;;9.57;100.00
47726;BME280;33483;48.294;16.388;2023-04-19T02:23:15;99783.00;;;9.55;100.00
47726;BME280;33483;48.294;16.388;2023-04-19T02:25:43;99778.47;;;9.52;100.00
47726;BME280;33483;48.294;16.388;2023-04-19T02:28:18;99775.75;;;9.47;100.00
47726;BME280;33483;48.294;16.388;2023-04-19T02:30:52;99776.03;;;9.43;100.00
47726;BME280;33483;48.294;16.388;2023-04-19T02:33:27;99775.53;;;9.45;100.00
47726;BME280;33483;48.294;16.388;2023-04-19T02:35:55;99782.06;;;9.47;100.00
47726;BME280;33483;48.294;16.388;2023-04-19T02:38:32;99775.44;;;9.56;100.00
47726;BME280;33483;48.294;16.388;2023-04-19T02:41:01;99775.19;;;9.54;100.00
47726;BME280;33483;48.294;16.388;2023-04-19T02:43:39;99772.44;;;9.54;100.00
47726;BME280;33483;48.294;16.388;2023-04-19T02:46:06;99764.13;;;9.54;100.00
47726;BME280;33483;48.294;16.388;2023-04-19T02:48:41;99760.91;;;9.50;100.00
47726;BME280;33483;48.294;16.388;2023-04-19T02:51:14;99763.72;;;9.44;100.00
47726;BME280;33483;48.294;16.388;2023-04-19T02:53:46;99760.19;;;9.44;100.00
47726;BME280;33483;48.294;16.388;2023-04-19T02:56:20;99764.75;;;9.41;100.00
47726;BME280;33483;48.294;16.388;2023-04-19T02:58:51;99756.50;;;9.36;100.00
47726;BME280;33483;48.294;16.388;2023-04-19T03:01:22;99753.72;;;9.36;100.00
47726;BME280;33483;48.294;16.388;2023-04-19T03:03:56;99753.25;;;9.32;100.00
47726;BME280;33483;48.294;16.388;2023-04-19T03:06:28;99753.25;;;9.32;100.00
47726;BME280;33483;48.294;16.388;2023-04-19T03:08:56;99748.22;;;9.30;100.00
47726;BME280;33483;48.294;16.388;2023-04-19T03:11:26;99758.78;;;9.32;100.00
47726;BME280;33483;48.294;16.388;2023-04-19T03:13:58;99744.72;;;9.30;100.00
47726;BME280;33483;48.294;16.388;2023-04-19T03:16:30;99747.19;;;9.33;100.00
47726;BME280;33483;48.294;16.388;2023-04-19T03:19:00;99736.66;;;9.32;100.00
47726;BME280;33483;48.294;16.388;2023-04-19T03:21:38;99735.69;;;9.29;100.00
47726;BME280;33483;48.294;16.388;2023-04-19T03:24:05;99734.44;;;9.25;100.00
47726;BME280;33483;48.294;16.388;2023-04-19T03:26:37;99733.94;;;9.21;100.00
47726;BME280;33483;48.294;16.388;2023-04-19T03:29:06;99726.22;;;9.13;100.00
47726;BME280;33483;48.294;16.388;2023-04-19T03:31:46;99725.25;;;9.11;100.00
47726;BME280;33483;48.294;16.388;2023-04-19T03:34:14;99723.72;;;9.10;100.00
47726;BME280;33483;48.294;16.388;2023-04-19T03:36:45;99725.47;;;9.13;100.00
47726;BME280;33483;48.294;16.388;2023-04-19T03:39:18;99721.47;;;9.08;100.00
47726;BME280;33483;48.294;16.388;2023-04-19T03:41:53;99721.47;;;9.08;100.00
47726;BME280;33483;48.294;16.388;2023-04-19T03:44:52;99716.47;;;9.07;100.00
47726;BME280;33483;48.294;16.388;2023-04-19T03:47:26;99719.97;;;9.07;100.00
47726;BME280;33483;48.294;16.388;2023-04-19T03:50:04;99724.28;;;9.03;100.00
47726;BME280;33483;48.294;16.388;2023-04-19T03:52:34;99721.53;;;9.03;100.00
47726;BME280;33483;48.294;16.388;2023-04-19T03:55:05;99727.53;;;9.01;100.00
47726;BME280;33483;48.294;16.388;2023-04-19T03:57:38;99723.78;;;9.04;100.00
47726;BME280;33483;48.294;16.388;2023-04-19T04:00:24;99722.50;;;9.05;100.00
47726;BME280;33483;48.294;16.388;2023-04-19T04:02:57;99722.75;;;9.07;100.00
47726;BME280;33483;48.294;16.388;2023-04-19T04:05:30;99710.94;;;9.07;100.00
47726;BME280;33483;48.294;16.388;2023-04-19T04:07:59;99712.44;;;9.08;100.00
47726;BME280;33483;48.294;16.388;2023-04-19T04:10:29;99724.25;;;9.08;100.00
47726;BME280;33483;48.294;16.388;2023-04-19T04:12:58;99718.50;;;9.06;100.00
47726;BME280;33483;48.294;16.388;2023-04-19T04:15:38;99713.25;;;9.03;100.00
47726;BME280;33483;48.294;16.388;2023-04-19T04:18:07;99720.00;;;9.02;100.00
47726;BME280;33483;48.294;16.388;2023-04-19T04:20:38;99721.03;;;8.99;100.00
47726;BME280;33483;48.294;16.388;2023-04-19T04:23:08;99719.31;;;8.96;100.00
47726;BME280;33483;48.294;16.388;2023-04-19T04:25:56;99712.50;;;8.97;100.00
47726;BME280;33483;48.294;16.388;2023-04-19T04:28:31;99716.03;;;8.97;100.00
47726;BME280;33483;48.294;16.388;2023-04-19T04:31:05;99709.50;;;8.95;100.00
47726;BME280;33483;48.294;16.388;2023-04-19T04:33:35;99710.25;;;8.95;100.00
47726;BME280;33483;48.294;16.388;2023-04-19T04:36:08;99717.03;;;8.94;100.00
47726;BME280;33483;48.294;16.388;2023-04-19T04:38:40;99717.28;;;8.96;100.00
47726;BME280;33483;48.294;16.388;2023-04-19T04:41:16;99711.06;;;8.90;100.00
47726;BME280;33483;48.294;16.388;2023-04-19T04:43:47;99708.53;;;8.92;100.00
47726;BME280;33483;48.294;16.388;2023-04-19T04:46:39;99700.50;;;8.89;100.00
47726;BME280;33483;48.294;16.388;2023-04-19T04:49:09;99696.47;;;8.90;100.00
47726;BME280;33483;48.294;16.388;2023-04-19T04:51:43;99698.72;;;8.91;100.00
47726;BME280;33483;48.294;16.388;2023-04-19T04:54:11;99701.25;;;8.89;100.00
47726;BME280;33483;48.294;16.388;2023-04-19T04:56:41;99694.72;;;8.92;100.00
47726;BME280;33483;48.294;16.388;2023-04-19T04:59:10;99687.66;;;8.91;100.00
47726;BME280;33483;48.294;16.388;2023-04-19T05:01:41;99689.19;;;8.92;100.00
47726;BME280;33483;48.294;16.388;2023-04-19T05:04:14;99689.63;;;8.96;100.00
47726;BME280;33483;48.294;16.388;2023-04-19T05:06:44;99685.88;;;8.99;100.00
47726;BME280;33483;48.294;16.388;2023-04-19T05:09:16;99681.06;;;9.00;100.00
47726;BME280;33483;48.294;16.388;2023-04-19T05:11:48;99679.31;;;9.02;100.00
47726;BME280;33483;48.294;16.388;2023-04-19T05:14:26;99684.06;;;9.02;100.00
47726;BME280;33483;48.294;16.388;2023-04-19T05:16:58;99676.50;;;9.08;100.00
47726;BME280;33483;48.294;16.388;2023-04-19T05:19:34;99677.47;;;9.10;100.00
47726;BME280;33483;48.294;16.388;2023-04-19T05:22:15;99674.72;;;9.10;100.00
47726;BME280;33483;48.294;16.388;2023-04-19T05:24:54;99678.72;;;9.15;100.00
47726;BME280;33483;48.294;16.388;2023-04-19T05:27:25;99667.13;;;9.17;100.00
47726;BME280;33483;48.294;16.388;2023-04-19T05:29:56;99671.38;;;9.18;100.00
47726;BME280;33483;48.294;16.388;2023-04-19T05:32:25;99664.38;;;9.17;100.00
47726;BME280;33483;48.294;16.388;2023-04-19T05:34:58;99665.38;;;9.13;100.00
47726;BME280;33483;48.294;16.388;2023-04-19T05:37:31;99677.19;;;9.14;100.00
47726;BME280;33483;48.294;16.388;2023-04-19T05:40:08;99679.19;;;9.13;100.00
47726;BME280;33483;48.294;16.388;2023-04-19T05:42:38;99670.47;;;9.09;100.00
47726;BME280;33483;48.294;16.388;2023-04-19T05:45:06;99666.91;;;9.15;100.00
47726;BME280;33483;48.294;16.388;2023-04-19T05:47:36;99662.53;;;9.25;100.00
47726;BME280;33483;48.294;16.388;2023-04-19T05:50:23;99667.75;;;9.34;100.00
47726;BME280;33483;48.294;16.388;2023-04-19T05:53:21;99667.69;;;9.39;100.00
47726;BME280;33483;48.294;16.388;2023-04-19T05:55:53;99668.38;;;9.45;100.00
47726;BME280;33483;48.294;16.388;2023-04-19T05:58:21;99672.38;;;9.50;100.00
47726;BME280;33483;48.294;16.388;2023-04-19T06:00:50;99669.63;;;9.50;100.00
47726;BME280;33483;48.294;16.388;2023-04-19T06:03:23;99668.06;;;9.54;100.00
47726;BME280;33483;48.294;16.388;2023-04-19T06:06:02;99670.25;;;9.61;100.00
47726;BME280;33483;48.294;16.388;2023-04-19T06:08:31;99668.47;;;9.64;100.00
47726;BME280;33483;48.294;16.388;2023-04-19T06:10:59;99670.53;;;9.58;100.00
47726;BME280;33483;48.294;16.388;2023-04-19T06:13:45;99673.06;;;9.56;100.00
47726;BME280;33483;48.294;16.388;2023-04-19T06:16:15;99672.09;;;9.53;100.00
47726;BME280;33483;48.294;16.388;2023-04-19T06:18:47;99671.38;;;9.47;100.00
47726;BME280;33483;48.294;16.388;2023-04-19T06:21:17;99666.84;;;9.50;100.00
47726;BME280;33483;48.294;16.388;2023-04-19T06:23:44;99668.09;;;9.49;100.00
47726;BME280;33483;48.294;16.388;2023-04-19T06:26:17;99672.91;;;9.48;100.00
47726;BME280;33483;48.294;16.388;2023-04-19T06:28:45;99670.63;;;9.47;100.00
47726;BME280;33483;48.294;16.388;2023-04-19T06:31:12;99670.41;;;9.45;100.00
47726;BME280;33483;48.294;16.388;2023-04-19T06:33:40;99662.13;;;9.45;100.00
47726;BME280;33483;48.294;16.388;2023-04-19T06:36:07;99668.91;;;9.44;100.00
47726;BME280;33483;48.294;16.388;2023-04-19T06:38:40;99659.41;;;9.39;100.00
47726;BME280;33483;48.294;16.388;2023-04-19T06:41:08;99666.94;;;9.39;100.00
47726;BME280;33483;48.294;16.388;2023-04-19T06:43:37;99665.22;;;9.36;100.00
47726;BME280;33483;48.294;16.388;2023-04-19T06:46:12;99663.50;;;9.33;100.00
47726;BME280;33483;48.294;16.388;2023-04-19T06:48:43;99654.47;;;9.27;100.00
47726;BME280;33483;48.294;16.388;2023-04-19T06:51:11;99668.81;;;9.25;100.00
47726;BME280;33483;48.294;16.388;2023-04-19T06:53:38;99662.03;;;9.26;100.00
47726;BME280;33483;48.294;16.388;2023-04-19T06:56:06;99669.34;;;9.24;100.00
47726;BME280;33483;48.294;16.388;2023-04-19T06:58:34;99666.34;;;9.22;100.00
47726;BME280;33483;48.294;16.388;2023-04-19T07:01:06;99655.03;;;9.20;100.00
47726;BME280;33483;48.294;16.388;2023-04-19T07:03:34;99657.53;;;9.23;100.00
47726;BME280;33483;48.294;16.388;2023-04-19T07:06:02;99662.28;;;9.23;100.00
47726;BME280;33483;48.294;16.388;2023-04-19T07:08:30;99660.81;;;9.22;100.00
47726;BME280;33483;48.294;16.388;2023-04-19T07:11:17;99662.56;;;9.19;100.00
47726;BME280;33483;48.294;16.388;2023-04-19T07:13:47;99660.53;;;9.25;100.00
47726;BME280;33483;48.294;16.388;2023-04-19T07:16:19;99661.47;;;9.33;100.00
47726;BME280;33483;48.294;16.388;2023-04-19T07:18:49;99661.41;;;9.39;100.00
47726;BME280;33483;48.294;16.388;2023-04-19T07:21:16;99658.59;;;9.44;100.00
47726;BME280;33483;48.294;16.388;2023-04-19T07:23:46;99653.75;;;9.50;100.00
47726;BME280;33483;48.294;16.388;2023-04-19T07:26:14;99650.97;;;9.50;100.00
47726;BME280;33483;48.294;16.388;2023-04-19T07:28:44;99656.31;;;9.48;100.00
47726;BME280;33483;48.294;16.388;2023-04-19T07:31:15;99646.50;;;9.47;100.00
47726;BME280;33483;48.294;16.388;2023-04-19T07:33:44;99661.78;;;9.54;100.00
47726;BME280;33483;48.294;16.388;2023-04-19T07:36:12;99652.25;;;9.49;100.00
47726;BME280;33483;48.294;16.388;2023-04-19T07:38:41;99652.84;;;9.42;100.00
47726;BME280;33483;48.294;16.388;2023-04-19T07:41:08;99655.66;;;9.37;100.00
47726;BME280;33483;48.294;16.388;2023-04-19T07:43:36;99657.16;;;9.38;100.00
47726;BME280;33483;48.294;16.388;2023-04-19T07:46:11;99652.63;;;9.35;100.00
47726;BME280;33483;48.294;16.388;2023-04-19T07:48:39;99653.69;;;9.32;100.00
47726;BME280;33483;48.294;16.388;2023-04-19T07:51:10;99657.19;;;9.32;100.00
47726;BME280;33483;48.294;16.388;2023-04-19T07:53:40;99653.91;;;9.34;100.00
47726;BME280;33483;48.294;16.388;2023-04-19T07:56:07;99650.69;;;9.30;100.00
47726;BME280;33483;48.294;16.388;2023-04-19T07:58:42;99644.13;;;9.33;100.00
47726;BME280;33483;48.294;16.388;2023-04-19T08:01:19;99649.06;;;9.40;100.00
47726;BME280;33483;48.294;16.388;2023-04-19T08:03:47;99647.50;;;9.50;100.00
47726;BME280;33483;48.294;16.388;2023-04-19T08:06:19;99643.34;;;9.62;100.00
47726;BME280;33483;48.294;16.388;2023-04-19T08:08:55;99645.97;;;9.73;100.00
47726;BME280;33483;48.294;16.388;2023-04-19T08:11:22;99646.09;;;9.86;100.00
47726;BME280;33483;48.294;16.388;2023-04-19T08:13:51;99649.03;;;9.93;100.00
47726;BME280;33483;48.294;16.388;2023-04-19T08:16:37;99643.44;;;9.99;100.00
47726;BME280;33483;48.294;16.388;2023-04-19T08:19:30;99640.88;;;10.01;100.00
47726;BME280;33483;48.294;16.388;2023-04-19T08:21:57;99633.56;;;10.03;100.00
47726;BME280;33483;48.294;16.388;2023-04-19T08:24:25;99643.88;;;10.03;100.00
47726;BME280;33483;48.294;16.388;2023-04-19T08:26:52;99640.81;;;10.06;100.00
47726;BME280;33483;48.294;16.388;2023-04-19T08:29:23;99635.13;;;9.99;100.00
47726;BME280;33483;48.294;16.388;2023-04-19T08:31:50;99648.00;;;9.96;100.00
47726;BME280;33483;48.294;16.388;2023-04-19T08:34:19;99642.47;;;9.96;100.00
47726;BME280;33483;48.294;16.388;2023-04-19T08:36:47;99638.22;;;9.95;100.00
47726;BME280;33483;48.294;16.388;2023-04-19T08:39:30;99637.28;;;9.87;100.00
47726;BME280;33483;48.294;16.388;2023-04-19T08:42:03;99639.19;;;9.74;100.00
47726;BME280;33483;48.294;16.388;2023-04-19T08:44:44;99639.47;;;9.70;100.00
47726;BME280;33483;48.294;16.388;2023-04-19T08:47:32;99637.06;;;9.61;100.00
47726;BME280;33483;48.294;16.388;2023-04-19T08:50:03;99643.41;;;9.56;100.00
47726;BME280;33483;48.294;16.388;2023-04-19T08:52:54;99649.97;;;9.53;100.00
47726;BME280;33483;48.294;16.388;2023-04-19T08:55:39;99637.63;;;9.54;100.00
47726;BME280;33483;48.294;16.388;2023-04-19T08:58:25;99643.16;;;9.54;100.00
47726;BME280;33483;48.294;16.388;2023-04-19T09:01:12;99643.69;;;9.53;100.00
47726;BME280;33483;48.294;16.388;2023-04-19T09:03:59;99644.72;;;9.50;100.00
47726;BME280;33483;48.294;16.388;2023-04-19T09:06:48;99633.19;;;9.46;100.00
47726;BME280;33483;48.294;16.388;2023-04-19T09:09:19;99644.78;;;9.44;100.00
47726;BME280;33483;48.294;16.388;2023-04-19T09:12:02;99642.97;;;9.47;100.00
47726;BME280;33483;48.294;16.388;2023-04-19T09:14:43;99650.94;;;9.56;100.00
47726;BME280;33483;48.294;16.388;2023-04-19T09:17:18;99645.41;;;9.56;100.00
47726;BME280;33483;48.294;16.388;2023-04-19T09:19:45;99642.13;;;9.57;100.00
47726;BME280;33483;48.294;16.388;2023-04-19T09:22:14;99642.78;;;9.69;100.00
47726;BME280;33483;48.294;16.388;2023-04-19T09:24:41;99645.69;;;9.76;100.00
47726;BME280;33483;48.294;16.388;2023-04-19T09:27:21;99644.81;;;9.87;100.00
47726;BME280;33483;48.294;16.388;2023-04-19T09:29:51;99642.09;;;10.05;100.00
47726;BME280;33483;48.294;16.388;2023-04-19T09:32:19;99649.78;;;10.18;100.00
47726;BME280;33483;48.294;16.388;2023-04-19T09:34:51;99638.72;;;10.18;100.00
47726;BME280;33483;48.294;16.388;2023-04-19T09:37:22;99648.16;;;10.28;100.00
47726;BME280;33483;48.294;16.388;2023-04-19T09:40:24;99639.03;;;10.33;100.00
47726;BME280;33483;48.294;16.388;2023-04-19T09:42:53;99643.06;;;10.32;100.00
47726;BME280;33483;48.294;16.388;2023-04-19T09:45:23;99650.47;;;10.43;100.00
47726;BME280;33483;48.294;16.388;2023-04-19T09:48:00;99645.28;;;10.71;100.00
47726;BME280;33483;48.294;16.388;2023-04-19T09:50:29;99654.22;;;10.82;100.00
47726;BME280;33483;48.294;16.388;2023-04-19T09:53:01;99646.00;;;10.90;100.00
47726;BME280;33483;48.294;16.388;2023-04-19T09:55:29;99648.78;;;11.08;100.00
47726;BME280;33483;48.294;16.388;2023-04-19T09:58:11;99639.63;;;11.26;100.00
47726;BME280;33483;48.294;16.388;2023-04-19T10:00:39;99652.03;;;11.38;100.00
47726;BME280;33483;48.294;16.388;2023-04-19T10:03:16;99638.28;;;11.46;100.00
47726;BME280;33483;48.294;16.388;2023-04-19T10:05:46;99645.22;;;11.53;100.00
47726;BME280;33483;48.294;16.388;2023-04-19T10:08:15;99645.66;;;11.44;100.00
47726;BME280;33483;48.294;16.388;2023-04-19T10:10:44;99643.31;;;11.48;100.00
47726;BME280;33483;48.294;16.388;2023-04-19T10:13:12;99649.31;;;11.52;100.00
47726;BME280;33483;48.294;16.388;2023-04-19T10:15:49;99646.56;;;11.65;100.00
47726;BME280;33483;48.294;16.388;2023-04-19T10:18:27;99649.56;;;11.67;100.00
47726;BME280;33483;48.294;16.388;2023-04-19T10:20:58;99644.25;;;11.82;100.00
47726;BME280;33483;48.294;16.388;2023-04-19T10:23:28;99651.91;;;12.02;100.00
47726;BME280;33483;48.294;16.388;2023-04-19T10:26:01;99647.22;;;11.84;100.00
47726;BME280;33483;48.294;16.388;2023-04-19T10:28:29;99648.09;;;11.92;100.00
47726;BME280;33483;48.294;16.388;2023-04-19T10:31:01;99641.56;;;11.76;100.00
47726;BME280;33483;48.294;16.388;2023-04-19T10:33:36;99644.03;;;11.80;100.00
47726;BME280;33483;48.294;16.388;2023-04-19T10:36:08;99637.81;;;11.74;100.00
47726;BME280;33483;48.294;16.388;2023-04-19T10:38:46;99636.34;;;11.73;100.00
47726;BME280;33483;48.294;16.388;2023-04-19T10:41:15;99632.63;;;11.38;100.00
47726;BME280;33483;48.294;16.388;2023-04-19T10:43:46;99633.97;;;11.19;100.00
47726;BME280;33483;48.294;16.388;2023-04-19T10:48:57;99625.59;;;11.38;100.00
47726;BME280;33483;48.294;16.388;2023-04-19T10:51:31;99622.19;;;11.45;100.00
47726;BME280;33483;48.294;16.388;2023-04-19T10:54:26;99617.25;;;11.38;100.00
47726;BME280;33483;48.294;16.388;2023-04-19T10:59:35;99616.13;;;11.59;100.00
47726;BME280;33483;48.294;16.388;2023-04-19T11:02:03;99607.69;;;11.65;100.00
47726;BME280;33483;48.294;16.388;2023-04-19T11:07:03;99608.78;;;11.88;100.00
47726;BME280;33483;48.294;16.388;2023-04-19T11:09:37;99597.31;;;12.17;100.00
47726;BME280;33483;48.294;16.388;2023-04-19T11:12:06;99608.34;;;12.57;100.00
47726;BME280;33483;48.294;16.388;2023-04-19T11:14:43;99603.72;;;12.59;100.00
47726;BME280;33483;48.294;16.388;2023-04-19T11:17:18;99598.22;;;12.46;100.00
47726;BME280;33483;48.294;16.388;2023-04-19T11:25:13;99590.88;;;12.69;100.00
47726;BME280;33483;48.294;16.388;2023-04-19T11:27:40;99588.31;;;12.92;100.00
47726;BME280;33483;48.294;16.388;2023-04-19T11:30:10;99590.59;;;12.80;100.00
47726;BME280;33483;48.294;16.388;2023-04-19T11:32:45;99594.31;;;12.62;100.00
47726;BME280;33483;48.294;16.388;2023-04-19T11:35:13;99584.78;;;12.58;100.00
47726;BME280;33483;48.294;16.388;2023-04-19T11:37:44;99580.28;;;12.34;100.00
47726;BME280;33483;48.294;16.388;2023-04-19T11:40:15;99580.19;;;12.26;100.00
47726;BME280;33483;48.294;16.388;2023-04-19T11:42:43;99579.31;;;12.31;100.00
47726;BME280;33483;48.294;16.388;2023-04-19T11:45:11;99585.00;;;12.26;100.00
47726;BME280;33483;48.294;16.388;2023-04-19T11:47:57;99589.72;;;12.18;100.00
47726;BME280;33483;48.294;16.388;2023-04-19T11:55:45;99585.16;;;11.94;100.00
47726;BME280;33483;48.294;16.388;2023-04-19T11:58:30;99591.28;;;11.80;100.00
47726;BME280;33483;48.294;16.388;2023-04-19T12:08:49;99577.81;;;11.71;100.00
47726;BME280;33483;48.294;16.388;2023-04-19T12:11:20;99583.53;;;11.60;100.00
47726;BME280;33483;48.294;16.388;2023-04-19T12:14:07;99582.19;;;11.66;100.00
47726;BME280;33483;48.294;16.388;2023-04-19T12:16:39;99586.47;;;11.67;100.00
47726;BME280;33483;48.294;16.388;2023-04-19T12:19:16;99590.50;;;11.79;100.00
47726;BME280;33483;48.294;16.388;2023-04-19T12:21:49;99580.88;;;11.80;100.00
47726;BME280;33483;48.294;16.388;2023-04-19T12:24:16;99576.31;;;11.70;100.00
47726;BME280;33483;48.294;16.388;2023-04-19T12:26:55;99587.53;;;11.64;100.00
47726;BME280;33483;48.294;16.388;2023-04-19T12:29:29;99577.47;;;11.48;100.00
47726;BME280;33483;48.294;16.388;2023-04-19T12:31:56;99572.22;;;11.45;100.00
47726;BME280;33483;48.294;16.388;2023-04-19T12:34:24;99565.50;;;11.40;100.00
47726;BME280;33483;48.294;16.388;2023-04-19T12:36:58;99561.75;;;11.51;100.00
47726;BME280;33483;48.294;16.388;2023-04-19T12:39:25;99560.59;;;11.59;100.00
47726;BME280;33483;48.294;16.388;2023-04-19T12:41:55;99558.78;;;11.49;100.00
47726;BME280;33483;48.294;16.388;2023-04-19T12:44:23;99561.88;;;11.58;100.00
47726;BME280;33483;48.294;16.388;2023-04-19T12:46:52;99558.69;;;11.67;100.00
47726;BME280;33483;48.294;16.388;2023-04-19T12:49:32;99562.63;;;11.72;100.00
47726;BME280;33483;48.294;16.388;2023-04-19T12:52:02;99561.13;;;11.84;100.00
47726;BME280;33483;48.294;16.388;2023-04-19T12:54:36;99561.22;;;11.91;100.00
47726;BME280;33483;48.294;16.388;2023-04-19T12:57:07;99558.25;;;11.89;100.00
47726;BME280;33483;48.294;16.388;2023-04-19T12:59:35;99561.81;;;11.77;100.00
47726;BME280;33483;48.294;16.388;2023-04-19T13:02:09;99554.13;;;11.70;100.00
47726;BME280;33483;48.294;16.388;2023-04-19T13:04:42;99554.94;;;11.65;100.00
47726;BME280;33483;48.294;16.388;2023-04-19T13:07:12;99564.78;;;11.66;100.00
47726;BME280;33483;48.294;16.388;2023-04-19T13:09:43;99566.81;;;11.65;100.00
47726;BME280;33483;48.294;16.388;2023-04-19T13:12:11;99560.78;;;11.61;100.00
47726;BME280;33483;48.294;16.388;2023-04-19T13:14:44;99561.38;;;11.73;100.00
47726;BME280;33483;48.294;16.388;2023-04-19T13:17:18;99558.38;;;11.71;100.00
47726;BME280;33483;48.294;16.388;2023-04-19T13:19:50;99564.03;;;11.78;100.00
47726;BME280;33483;48.294;16.388;2023-04-19T13:22:18;99559.22;;;11.79;100.00
47726;BME280;33483;48.294;16.388;2023-04-19T13:24:47;99556.13;;;11.69;100.00
47726;BME280;33483;48.294;16.388;2023-04-19T13:27:18;99554.31;;;11.72;100.00
47726;BME280;33483;48.294;16.388;2023-04-19T13:29:48;99552.72;;;11.76;100.00
47726;BME280;33483;48.294;16.388;2023-04-19T13:32:19;99554.31;;;11.85;100.00
47726;BME280;33483;48.294;16.388;2023-04-19T13:34:51;99554.97;;;11.78;100.00
47726;BME280;33483;48.294;16.388;2023-04-19T13:37:24;99558.06;;;11.74;100.00
47726;BME280;33483;48.294;16.388;2023-04-19T13:39:52;99557.22;;;11.66;100.00
47726;BME280;33483;48.294;16.388;2023-04-19T13:42:34;99566.34;;;11.61;100.00